Time;durP1;ratioP1;P1;durP2;ratioP2;P2;SDS_P1;SDS_P2;PMS_P1;PMS_P2;Temp;Humidity;BMP_temperature;BMP_pressure;BME280_temperature;BME280_humidity;BME280_pressure;Samples;Min_cycle;Max_cycle;Signal;HPM_P1;HPM_P2
2023/09/05 00:02:19;;;;;;;3.63;2.50;;;24.60;66.20;;;;;;5034654;28;20048;-68
2023/09/05 00:05:23;;;;;;;5.97;2.40;;;24.60;66.80;;;;;;5034129;28;20044;-69
2023/09/05 00:08:27;;;;;;;13.65;2.97;;;24.60;66.40;;;;;;5033368;28;20048;-69
2023/09/05 00:11:33;;;;;;;4.47;2.15;;;26.30;68.00;;;;;;5034288;28;20072;-69
2023/09/05 00:14:36;;;;;;;6.20;2.40;;;25.20;67.80;;;;;;5034065;28;20036;-69
2023/09/05 00:17:43;;;;;;;7.63;2.30;;;24.70;65.80;;;;;;5033385;28;20052;-69
2023/09/05 00:20:51;;;;;;;4.40;2.30;;;24.60;66.30;;;;;;5034129;28;20044;-69
2023/09/05 00:24:33;;;;;;;5.47;2.38;;;24.60;66.80;;;;;;5032979;28;20064;-69
2023/09/05 00:27:39;;;;;;;6.05;2.63;;;24.70;67.10;;;;;;5034018;28;20036;-68
2023/09/05 00:30:43;;;;;;;6.78;2.38;;;24.70;67.50;;;;;;5033109;28;20409;-69
2023/09/05 00:33:47;;;;;;;8.52;2.13;;;23.70;67.00;;;;;;5033641;28;20057;-69
2023/09/05 00:36:52;;;;;;;5.72;2.33;;;24.80;67.30;;;;;;5032787;28;20056;-68
2023/09/05 00:39:56;;;;;;;11.40;2.97;;;24.80;66.90;;;;;;5033802;28;20673;-68
2023/09/05 00:43:00;;;;;;;6.07;2.40;;;24.70;67.80;;;;;;5032766;28;20036;-69
2023/09/05 00:46:06;;;;;;;11.52;2.80;;;24.60;67.40;;;;;;5033259;28;20052;-69
2023/09/05 00:49:15;;;;;;;7.75;2.53;;;24.70;67.30;;;;;;5033399;28;20040;-69
2023/09/05 00:52:19;;;;;;;12.07;2.95;;;24.70;67.40;;;;;;5021441;28;20064;-69
2023/09/05 00:55:24;;;;;;;12.73;2.63;;;24.70;67.30;;;;;;5033468;28;20049;-69
2023/09/05 00:58:28;;;;;;;10.48;2.78;;;24.70;66.80;;;;;;5033273;28;20116;-69
2023/09/05 01:01:32;;;;;;;6.75;2.67;;;24.60;66.60;;;;;;5033527;28;20088;-69
2023/09/05 01:04:36;;;;;;;4.85;2.67;;;24.80;67.20;;;;;;5033438;28;20045;-69
2023/09/05 01:08:02;;;;;;;9.23;2.72;;;24.70;67.30;;;;;;5032073;28;20049;-69
2023/09/05 01:11:08;;;;;;;6.68;2.33;;;24.70;67.50;;;;;;5032944;28;20381;-69
2023/09/05 01:14:14;;;;;;;9.07;2.63;;;24.70;66.50;;;;;;5033250;28;20048;-69
2023/09/05 01:17:18;;;;;;;4.88;3.00;;;24.60;66.70;;;;;;5032809;28;20401;-69
2023/09/05 01:20:29;;;;;;;7.32;2.80;;;24.60;66.60;;;;;;5033091;28;20054;-69
2023/09/05 01:23:48;;;;;;;8.90;2.60;;;24.60;67.50;;;;;;5032727;28;20045;-68
2023/09/05 01:26:53;;;;;;;8.38;2.60;;;24.60;67.90;;;;;;5032784;28;20049;-69
2023/09/05 01:29:58;;;;;;;6.43;2.13;;;24.60;67.70;;;;;;5031699;28;20052;-69
2023/09/05 01:33:02;;;;;;;6.70;2.40;;;24.60;67.50;;;;;;5031738;28;20052;-69
2023/09/05 01:36:09;;;;;;;6.82;2.38;;;24.60;67.20;;;;;;5032802;28;20048;-69
2023/09/05 01:39:13;;;;;;;7.28;2.47;;;24.60;66.80;;;;;;5032637;28;20052;-69
2023/09/05 01:42:18;;;;;;;8.02;2.60;;;24.60;66.80;;;;;;5032651;28;20049;-69
2023/09/05 01:45:22;;;;;;;4.68;2.30;;;24.60;67.10;;;;;;5032525;28;20496;-69
2023/09/05 01:48:26;;;;;;;8.25;2.45;;;23.20;67.20;;;;;;5032594;28;20068;-69
2023/09/05 01:51:30;;;;;;;5.10;2.38;;;24.70;67.40;;;;;;5031403;28;20058;-69
2023/09/05 01:54:38;;;;;;;5.18;2.25;;;24.70;67.60;;;;;;5032591;28;20049;-69
2023/09/05 01:57:42;;;;;;;8.65;2.35;;;24.70;67.00;;;;;;5031515;28;20060;-69
2023/09/05 02:00:46;;;;;;;3.95;2.47;;;24.70;67.10;;;;;;5031286;28;20497;-69
2023/09/05 02:03:51;;;;;;;5.72;2.58;;;24.70;66.70;;;;;;5032256;28;20047;-69
2023/09/05 02:06:55;;;;;;;5.28;2.40;;;24.70;67.50;;;;;;5031785;28;20045;-70
2023/09/05 02:09:59;;;;;;;5.95;2.60;;;24.60;67.10;;;;;;5031106;28;20044;-69
2023/09/05 02:13:03;;;;;;;7.93;2.63;;;24.60;67.90;;;;;;5031159;28;20053;-69
2023/09/05 02:16:07;;;;;;;8.20;2.97;;;24.60;67.60;;;;;;5032151;28;20044;-69
2023/09/05 02:19:12;;;;;;;7.75;2.92;;;24.50;67.00;;;;;;5030938;28;20048;-69
2023/09/05 02:22:16;;;;;;;8.88;2.53;;;24.30;67.20;;;;;;5030820;28;20049;-69
2023/09/05 02:25:20;;;;;;;6.85;2.80;;;24.60;68.00;;;;;;5031949;28;20500;-69
2023/09/05 02:28:24;;;;;;;3.42;2.28;;;24.60;67.40;;;;;;5030946;28;20052;-69
2023/09/05 02:31:29;;;;;;;7.10;2.53;;;24.50;68.20;;;;;;5031395;28;20057;-69
2023/09/05 02:34:32;;;;;;;5.10;2.70;;;24.60;68.60;;;;;;5030518;28;20417;-69
2023/09/05 02:37:37;;;;;;;11.30;2.65;;;24.50;68.20;;;;;;5030627;28;20045;-70
2023/09/05 02:40:47;;;;;;;5.72;2.63;;;24.50;68.00;;;;;;5031302;28;20283;-69
2023/09/05 02:43:50;;;;;;;5.07;2.30;;;24.40;68.20;;;;;;5031481;28;20042;-68
2023/09/05 02:46:57;;;;;;;9.48;3.22;;;24.30;67.50;;;;;;5031405;28;20192;-68
2023/09/05 02:50:01;;;;;;;7.45;2.95;;;24.50;67.80;;;;;;5030299;28;20056;-69
2023/09/05 02:53:06;;;;;;;13.30;2.72;;;24.40;67.70;;;;;;5031358;28;20405;-69
2023/09/05 02:56:10;;;;;;;9.57;2.88;;;24.30;69.60;;;;;;5031242;28;20315;-69
2023/09/05 02:59:14;;;;;;;7.05;2.42;;;24.30;68.80;;;;;;5031088;28;20041;-68
2023/09/05 03:02:18;;;;;;;8.18;2.70;;;24.30;69.10;;;;;;5031291;28;20045;-68
2023/09/05 03:05:22;;;;;;;9.77;2.92;;;24.40;69.30;;;;;;5031131;28;20052;-69
2023/09/05 03:08:25;;;;;;;10.55;2.50;;;24.30;69.70;;;;;;5030102;28;20044;-69
2023/09/05 03:11:29;;;;;;;5.18;2.45;;;24.30;69.00;;;;;;5030268;28;20057;-69
2023/09/05 03:14:33;;;;;;;8.90;2.63;;;24.30;69.10;;;;;;5030833;28;20527;-69
2023/09/05 03:17:37;;;;;;;12.43;3.00;;;24.40;69.60;;;;;;5029676;28;20052;-69
2023/09/05 03:20:42;;;;;;;4.57;2.45;;;24.50;69.90;;;;;;5030550;28;20492;-69
2023/09/05 03:23:46;;;;;;;7.75;2.75;;;24.40;70.10;;;;;;5030882;28;20053;-69
2023/09/05 03:26:50;;;;;;;13.55;2.70;;;24.40;70.20;;;;;;5030850;28;20044;-69
2023/09/05 03:29:53;;;;;;;7.40;3.25;;;24.40;69.90;;;;;;5030026;28;20508;-69
2023/09/05 03:32:57;;;;;;;11.02;2.67;;;24.40;69.90;;;;;;5032596;28;20064;-69
2023/09/05 03:36:03;;;;;;;4.90;2.95;;;24.40;70.10;;;;;;5034329;28;20044;-69
2023/09/05 03:39:06;;;;;;;6.95;2.88;;;24.40;69.90;;;;;;5035126;28;20044;-69
2023/09/05 03:42:10;;;;;;;8.15;2.70;;;23.50;69.60;;;;;;5033975;28;20044;-69
2023/09/05 03:45:15;;;;;;;5.60;2.70;;;24.40;69.90;;;;;;5034811;28;20044;-69
2023/09/05 03:48:18;;;;;;;6.55;2.70;;;24.40;70.60;;;;;;5034625;28;20040;-69
2023/09/05 03:51:22;;;;;;;7.88;2.83;;;24.40;70.90;;;;;;5034502;28;20048;-69
2023/09/05 03:54:26;;;;;;;5.65;2.38;;;24.30;70.40;;;;;;5034442;28;20492;-69
2023/09/05 03:57:32;;;;;;;8.55;2.78;;;24.30;70.70;;;;;;5033740;28;20488;-69
2023/09/05 04:00:35;;;;;;;7.63;3.05;;;24.30;70.50;;;;;;5034709;28;20044;-69
2023/09/05 04:03:39;;;;;;;15.13;2.92;;;24.30;70.60;;;;;;5034431;28;20037;-68
2023/09/05 04:06:43;;;;;;;14.27;2.80;;;24.30;70.50;;;;;;5033625;28;20053;-68
2023/09/05 04:09:50;;;;;;;7.97;2.83;;;24.30;70.90;;;;;;5033586;28;20409;-69
2023/09/05 04:12:54;;;;;;;7.85;2.92;;;24.10;71.50;;;;;;5033544;28;20056;-69
2023/09/05 04:16:04;;;;;;;11.20;3.17;;;24.10;72.10;;;;;;5033198;28;20045;-69
2023/09/05 04:19:08;;;;;;;3.88;2.38;;;24.30;72.20;;;;;;5033640;28;20045;-69
2023/09/05 04:22:12;;;;;;;8.15;3.22;;;24.20;70.90;;;;;;5034530;28;20500;-68
2023/09/05 04:25:19;;;;;;;8.88;3.22;;;24.20;71.50;;;;;;5034735;28;20080;-70
2023/09/05 04:28:24;;;;;;;9.95;2.97;;;24.30;71.00;;;;;;5034144;28;20045;-69
2023/09/05 04:31:28;;;;;;;12.07;3.38;;;24.40;70.60;;;;;;5032944;28;20072;-69
2023/09/05 04:34:34;;;;;;;9.65;3.03;;;24.30;71.50;;;;;;5032719;28;20053;-68
2023/09/05 04:37:38;;;;;;;14.23;3.58;;;24.30;71.70;;;;;;5033090;28;20052;-69
2023/09/05 04:40:42;;;;;;;9.95;3.17;;;24.30;72.00;;;;;;5034097;28;20045;-69
2023/09/05 04:43:47;;;;;;;16.15;3.65;;;24.30;71.40;;;;;;5033034;28;20057;-69
2023/09/05 04:46:51;;;;;;;10.25;3.45;;;24.00;71.00;;;;;;5033709;28;20041;-69
2023/09/05 04:49:59;;;;;;;8.38;2.67;;;23.60;71.20;;;;;;5033047;28;20080;-70
2023/09/05 04:53:03;;;;;;;13.80;2.72;;;24.20;72.70;;;;;;5033697;28;20052;-70
2023/09/05 04:56:07;;;;;;;8.52;3.28;;;24.20;73.00;;;;;;5033491;28;20041;-70
2023/09/05 04:59:11;;;;;;;16.42;3.30;;;24.20;72.50;;;;;;5032801;28;20056;-70
2023/09/05 05:02:16;;;;;;;7.10;3.05;;;24.20;72.70;;;;;;5033602;28;20044;-69
2023/09/05 05:05:20;;;;;;;9.63;3.10;;;24.20;73.20;;;;;;5032544;28;20037;-71
2023/09/05 05:08:24;;;;;;;11.55;3.22;;;24.20;72.90;;;;;;5033051;28;20048;-70
2023/09/05 05:11:27;;;;;;;12.80;3.20;;;24.60;73.90;;;;;;5032929;28;20053;-69
2023/09/05 05:14:31;;;;;;;10.00;3.08;;;24.10;73.50;;;;;;5032167;28;20401;-69
2023/09/05 05:17:36;;;;;;;10.65;3.30;;;24.00;74.70;;;;;;5032954;28;20507;-70
2023/09/05 05:20:40;;;;;;;12.55;2.90;;;24.00;75.20;;;;;;5032219;28;20044;-70
2023/09/05 05:23:44;;;;;;;12.00;3.00;;;23.30;75.00;;;;;;5031984;28;20515;-70
2023/09/05 05:26:48;;;;;;;11.43;3.85;;;24.00;75.30;;;;;;5033125;28;20049;-68
2023/09/05 05:30:12;;;;;;;7.05;3.00;;;23.90;74.60;;;;;;5032743;28;20056;-68
2023/09/05 05:33:16;;;;;;;13.05;3.10;;;24.00;74.70;;;;;;5032141;28;20047;-59
2023/09/05 05:36:21;;;;;;;13.98;3.72;;;24.00;74.80;;;;;;5032378;28;20041;-58
2023/09/05 05:39:25;;;;;;;10.10;2.95;;;24.20;75.20;;;;;;5032513;28;20500;-58
2023/09/05 05:42:30;;;;;;;13.43;3.08;;;25.10;73.40;;;;;;5032308;28;20041;-59
2023/09/05 05:45:34;;;;;;;21.95;3.40;;;25.70;72.70;;;;;;5020076;28;20048;-58
2023/09/05 05:48:38;;;;;;;9.63;3.40;;;26.00;70.70;;;;;;5031898;28;20048;-59
2023/09/05 05:51:42;;;;;;;12.43;3.70;;;25.50;72.00;;;;;;5031140;28;20060;-60
2023/09/05 05:54:47;;;;;;;10.35;2.97;;;25.50;72.60;;;;;;5031248;28;20041;-59
2023/09/05 05:57:51;;;;;;;11.48;3.13;;;24.70;73.40;;;;;;5031741;28;20044;-59
2023/09/05 06:00:59;;;;;;;11.60;3.20;;;24.60;73.80;;;;;;5032171;28;20044;-58
2023/09/05 06:04:04;;;;;;;11.43;3.30;;;24.50;74.40;;;;;;5031753;28;20074;-59
2023/09/05 06:07:07;;;;;;;13.45;2.85;;;24.50;74.50;;;;;;5031561;28;20065;-58
2023/09/05 06:10:11;;;;;;;14.38;3.28;;;25.50;74.10;;;;;;5031656;28;20044;-59
2023/09/05 06:13:15;;;;;;;12.88;3.25;;;24.40;73.50;;;;;;5030890;28;20048;-60
2023/09/05 06:16:21;;;;;;;12.07;3.03;;;24.40;73.60;;;;;;5031498;28;20037;-58
2023/09/05 06:19:27;;;;;;;9.55;2.78;;;24.40;73.70;;;;;;5031504;28;20515;-60
2023/09/05 06:22:31;;;;;;;11.77;3.33;;;24.40;73.30;;;;;;5042550;28;20052;-60
2023/09/05 06:25:35;;;;;;;18.92;3.00;;;24.40;72.00;;;;;;5031487;28;20480;-62
2023/09/05 06:28:39;;;;;;;7.05;2.83;;;24.70;72.00;;;;;;5031488;28;20127;-60
2023/09/05 06:31:43;;;;;;;8.40;3.00;;;24.60;72.40;;;;;;5031061;28;20053;-60
2023/09/05 06:34:47;;;;;;;12.38;3.70;;;24.80;71.30;;;;;;5031239;28;20052;-60
2023/09/05 06:37:55;;;;;;;9.57;3.22;;;25.20;71.00;;;;;;5031220;28;20056;-60
2023/09/05 06:41:07;;;;;;;13.68;3.00;;;25.50;70.30;;;;;;5031365;28;20385;-60
2023/09/05 06:44:10;;;;;;;9.38;3.03;;;25.90;69.30;;;;;;5031432;28;20052;-60
2023/09/05 06:47:15;;;;;;;8.18;3.08;;;26.10;69.10;;;;;;5031356;28;20052;-60
2023/09/05 06:50:18;;;;;;;13.75;3.35;;;26.30;69.30;;;;;;5031267;28;20056;-60
2023/09/05 06:53:22;;;;;;;6.32;2.80;;;26.50;68.90;;;;;;5031104;28;20064;-60
2023/09/05 06:56:26;;;;;;;13.52;2.80;;;26.70;68.70;;;;;;5030901;28;20048;-59
2023/09/05 06:59:30;;;;;;;16.42;3.30;;;26.90;68.90;;;;;;5031157;28;20056;-59
2023/09/05 07:02:34;;;;;;;7.28;3.17;;;26.90;68.10;;;;;;5031060;28;20588;-60
2023/09/05 07:05:41;;;;;;;14.38;3.40;;;26.90;68.00;;;;;;5030806;28;20068;-59
2023/09/05 07:08:46;;;;;;;13.57;3.38;;;27.00;68.30;;;;;;5030620;28;20060;-60
2023/09/05 07:11:51;;;;;;;6.80;3.15;;;27.20;67.50;;;;;;5030445;28;20112;-60
2023/09/05 07:14:55;;;;;;;9.90;3.55;;;27.40;67.60;;;;;;5030900;28;20047;-61
2023/09/05 07:18:00;;;;;;;9.55;2.90;;;27.40;67.30;;;;;;5030521;28;20040;-59
2023/09/05 07:21:04;;;;;;;13.50;3.15;;;27.40;66.30;;;;;;5031163;28;20060;-58
2023/09/05 07:24:13;;;;;;;14.00;3.80;;;27.30;67.40;;;;;;5030958;28;20048;-60
2023/09/05 07:27:17;;;;;;;13.43;3.45;;;27.30;67.50;;;;;;5030093;28;20044;-59
2023/09/05 07:30:21;;;;;;;16.13;3.65;;;27.20;67.80;;;;;;5030483;28;20049;-59
2023/09/05 07:33:25;;;;;;;10.32;3.50;;;27.10;67.60;;;;;;5030268;28;20056;-62
2023/09/05 07:36:29;;;;;;;10.80;3.22;;;27.10;67.50;;;;;;5030119;28;20377;-62
2023/09/05 07:39:33;;;;;;;6.80;3.40;;;27.10;66.40;;;;;;5029734;28;20048;-59
2023/09/05 07:42:41;;;;;;;9.73;3.75;;;27.30;67.10;;;;;;5030132;28;20045;-59
2023/09/05 07:45:47;;;;;;;14.05;3.90;;;27.50;66.60;;;;;;5030385;28;20033;-60
2023/09/05 07:48:52;;;;;;;18.35;3.50;;;27.60;65.80;;;;;;5030391;28;20049;-58
2023/09/05 07:51:57;;;;;;;11.65;3.53;;;27.70;65.50;;;;;;5030161;28;20623;-60
2023/09/05 07:55:01;;;;;;;11.40;3.60;;;27.70;66.90;;;;;;5029548;28;20063;-58
2023/09/05 07:58:05;;;;;;;19.98;4.13;;;27.70;65.70;;;;;;5030429;28;20048;-59
2023/09/05 08:01:09;;;;;;;23.98;3.72;;;27.50;66.30;;;;;;5030170;28;20040;-59
2023/09/05 08:04:14;;;;;;;11.15;3.90;;;27.40;66.90;;;;;;5030423;28;20095;-60
2023/09/05 08:07:18;;;;;;;18.00;3.40;;;27.40;66.90;;;;;;5030161;28;20064;-59
2023/09/05 08:10:22;;;;;;;12.82;4.10;;;27.50;66.70;;;;;;5030256;28;20401;-59
2023/09/05 08:13:26;;;;;;;14.27;3.65;;;27.60;66.30;;;;;;5030561;28;20570;-59
2023/09/05 08:16:30;;;;;;;12.68;3.50;;;27.70;65.60;;;;;;5030356;28;20040;-60
2023/09/05 08:19:34;;;;;;;16.08;3.80;;;27.80;65.80;;;;;;5033751;28;20500;-60
2023/09/05 08:22:38;;;;;;;15.95;3.30;;;27.80;66.00;;;;;;5033950;28;20120;-60
2023/09/05 08:25:42;;;;;;;10.82;3.58;;;27.80;65.60;;;;;;5034019;28;20052;-59
2023/09/05 08:28:49;;;;;;;13.05;3.30;;;27.90;66.00;;;;;;5033982;28;20405;-60
2023/09/05 08:31:54;;;;;;;12.35;3.10;;;28.50;64.50;;;;;;5033566;28;20052;-59
2023/09/05 08:34:58;;;;;;;17.75;3.45;;;29.80;63.30;;;;;;5033573;28;20052;-59
2023/09/05 08:38:04;;;;;;;7.28;2.75;;;29.50;63.60;;;;;;5033067;28;20096;-60
2023/09/05 08:41:08;;;;;;;7.82;2.70;;;28.90;63.80;;;;;;5033456;28;20393;-59
2023/09/05 08:44:12;;;;;;;8.23;3.10;;;28.60;64.10;;;;;;5033731;28;20044;-61
2023/09/05 08:47:16;;;;;;;23.05;3.88;;;28.50;64.00;;;;;;5033173;28;20053;-60
2023/09/05 08:50:20;;;;;;;14.77;2.88;;;28.40;64.60;;;;;;5033284;28;20064;-59
2023/09/05 08:53:31;;;;;;;22.13;3.63;;;28.10;65.00;;;;;;5033153;28;20535;-60
2023/09/05 08:56:35;;;;;;;13.32;3.03;;;28.10;65.90;;;;;;5032542;28;20045;-60
2023/09/05 08:59:40;;;;;;;8.55;2.67;;;28.10;65.70;;;;;;5033197;28;20052;-59
2023/09/05 09:02:45;;;;;;;18.35;3.20;;;28.00;65.30;;;;;;5033254;28;20048;-60
2023/09/05 09:05:49;;;;;;;16.65;3.33;;;27.90;65.70;;;;;;5033202;28;20089;-59
2023/09/05 09:08:54;;;;;;;13.77;3.05;;;27.90;65.40;;;;;;5033177;28;20048;-60
2023/09/05 09:12:01;;;;;;;7.43;3.15;;;28.10;65.50;;;;;;5032726;28;20070;-60
2023/09/05 09:15:25;;;;;;;10.43;3.28;;;28.20;64.90;;;;;;5033084;28;20049;-58
2023/09/05 09:18:32;;;;;;;17.92;3.20;;;28.00;65.40;;;;;;5032865;28;20048;-58
2023/09/05 09:21:39;;;;;;;16.17;4.05;;;27.90;65.60;;;;;;5032918;28;20041;-59
2023/09/05 09:24:45;;;;;;;15.43;3.08;;;27.70;65.80;;;;;;5032838;28;20056;-59
2023/09/05 09:27:53;;;;;;;12.10;2.50;;;27.50;66.70;;;;;;5032583;28;20065;-60
2023/09/05 09:31:02;;;;;;;55.60;5.20;;;27.50;65.90;;;;;;5030838;28;20056;-59
2023/09/05 09:34:07;;;;;;;10.65;3.42;;;27.30;65.90;;;;;;5032370;28;20053;-60
2023/09/05 09:37:24;;;;;;;28.42;3.80;;;27.30;66.30;;;;;;5032534;28;20159;-59
2023/09/05 09:40:36;;;;;;;20.23;3.30;;;27.30;66.30;;;;;;5032656;28;20049;-60
2023/09/05 09:43:40;;;;;;;15.90;2.95;;;27.60;66.10;;;;;;5032568;28;20052;-60
2023/09/05 09:46:44;;;;;;;8.15;2.88;;;27.40;66.20;;;;;;5032097;28;20041;-59
2023/09/05 09:49:51;;;;;;;21.98;3.28;;;27.30;66.60;;;;;;5032460;28;20512;-59
2023/09/05 09:52:59;;;;;;;18.10;3.38;;;27.20;66.60;;;;;;5032401;28;20048;-59
2023/09/05 09:56:10;;;;;;;11.00;3.35;;;27.20;66.50;;;;;;5031958;28;20041;-60
2023/09/05 09:59:19;;;;;;;9.32;3.15;;;27.20;66.50;;;;;;5032227;28;20500;-60
2023/09/05 10:02:25;;;;;;;10.05;2.80;;;27.30;66.90;;;;;;5032055;28;20072;-61
2023/09/05 10:05:32;;;;;;;13.82;2.72;;;27.50;65.80;;;;;;5032325;28;20056;-59
2023/09/05 10:08:36;;;;;;;25.38;2.90;;;27.60;65.90;;;;;;5031864;28;20048;-58
2023/09/05 10:11:41;;;;;;;21.35;3.50;;;27.50;64.70;;;;;;5031743;28;20056;-60
2023/09/05 10:14:46;;;;;;;20.58;3.85;;;27.60;65.30;;;;;;5031788;28;20527;-60
2023/09/05 10:17:51;;;;;;;32.00;3.78;;;27.60;65.00;;;;;;5031534;28;20040;-59
2023/09/05 10:20:56;;;;;;;35.72;3.85;;;27.60;65.70;;;;;;5031434;28;20064;-59
2023/09/05 10:24:05;;;;;;;16.48;3.30;;;27.50;65.60;;;;;;5031703;28;20068;-60
2023/09/05 10:27:10;;;;;;;13.32;2.83;;;27.40;65.40;;;;;;5031344;28;20112;-61
2023/09/05 10:30:14;;;;;;;14.05;3.05;;;27.40;65.40;;;;;;5031783;28;20040;-62
2023/09/05 10:33:32;;;;;;;12.52;3.10;;;27.30;65.40;;;;;;5031133;28;20048;-62
2023/09/05 10:36:46;;;;;;;22.25;3.38;;;27.40;65.40;;;;;;5031408;28;20050;-61
2023/09/05 10:40:00;;;;;;;13.23;3.20;;;27.60;65.10;;;;;;5031339;28;20044;-62
2023/09/05 10:43:08;;;;;;;22.88;3.83;;;27.70;65.20;;;;;;5031488;28;20052;-61
2023/09/05 10:46:12;;;;;;;16.50;3.40;;;28.10;64.80;;;;;;5030955;28;20052;-62
2023/09/05 10:49:17;;;;;;;14.30;3.17;;;28.20;64.40;;;;;;5031152;28;20044;-61
2023/09/05 10:52:21;;;;;;;31.90;3.97;;;28.30;64.50;;;;;;5041445;28;20052;-61
2023/09/05 10:55:29;;;;;;;20.80;4.10;;;28.40;64.50;;;;;;5031231;28;20060;-60
2023/09/05 10:58:47;;;;;;;13.95;3.03;;;28.50;64.60;;;;;;5030793;28;20048;-60
2023/09/05 11:01:54;;;;;;;20.05;3.17;;;28.50;64.50;;;;;;5030686;28;20049;-59
2023/09/05 11:04:58;;;;;;;10.93;3.30;;;28.50;64.60;;;;;;5030528;28;20057;-60
2023/09/05 11:08:02;;;;;;;11.77;2.85;;;28.30;64.60;;;;;;5030945;28;20048;-59
2023/09/05 11:11:06;;;;;;;14.10;3.17;;;28.20;64.90;;;;;;5030588;28;20044;-61
2023/09/05 11:14:13;;;;;;;10.75;3.17;;;28.10;63.80;;;;;;5030859;28;20053;-60
2023/09/05 11:17:17;;;;;;;7.72;2.55;;;28.10;64.90;;;;;;5030541;28;20044;-60
2023/09/05 11:20:21;;;;;;;11.05;2.90;;;28.10;64.20;;;;;;5030721;28;20048;-61
2023/09/05 11:23:25;;;;;;;8.13;2.65;;;28.20;63.80;;;;;;5030842;28;20057;-60
2023/09/05 11:26:29;;;;;;;18.27;2.83;;;28.20;64.00;;;;;;5030293;28;20049;-60
2023/09/05 11:29:33;;;;;;;15.07;3.40;;;28.20;64.90;;;;;;5030679;28;20085;-61
2023/09/05 11:32:42;;;;;;;12.27;2.55;;;28.10;64.40;;;;;;5030432;28;20068;-60
2023/09/05 11:35:48;;;;;;;7.45;2.80;;;28.00;64.40;;;;;;5030625;28;20139;-60
2023/09/05 11:38:52;;;;;;;6.47;2.75;;;28.30;64.40;;;;;;5030644;28;20491;-60
2023/09/05 11:41:58;;;;;;;7.30;2.60;;;28.40;63.50;;;;;;5030483;28;20045;-62
2023/09/05 11:45:03;;;;;;;7.18;2.70;;;28.60;64.20;;;;;;5030546;28;20037;-60
2023/09/05 11:48:11;;;;;;;13.13;2.72;;;28.80;64.10;;;;;;5030365;28;20052;-60
2023/09/05 11:51:16;;;;;;;4.32;2.90;;;28.70;63.00;;;;;;5030281;28;20048;-60
2023/09/05 11:54:20;;;;;;;8.30;2.70;;;28.80;62.70;;;;;;5033634;28;20053;-61
2023/09/05 11:57:24;;;;;;;16.05;3.30;;;28.90;62.60;;;;;;5034247;28;20048;-59
2023/09/05 12:00:28;;;;;;;15.48;2.85;;;28.80;62.60;;;;;;5034518;28;20048;-60
2023/09/05 12:03:40;;;;;;;8.68;2.53;;;28.80;62.40;;;;;;5034071;28;20045;-61
2023/09/05 12:06:49;;;;;;;13.55;2.47;;;28.90;63.20;;;;;;5033783;28;20044;-60
2023/09/05 12:09:54;;;;;;;7.72;2.90;;;29.10;62.70;;;;;;5033853;28;20036;-59
2023/09/05 12:13:01;;;;;;;6.97;2.30;;;29.90;61.50;;;;;;5033753;28;20056;-59
2023/09/05 12:16:10;;;;;;;6.55;2.25;;;31.00;60.50;;;;;;5033806;28;20044;-60
2023/09/05 12:19:14;;;;;;;8.43;2.70;;;31.70;59.40;;;;;;5033917;28;20040;-60
2023/09/05 12:22:34;;;;;;;8.73;2.40;;;31.70;58.70;;;;;;5033987;28;20040;-61
2023/09/05 12:25:46;;;;;;;28.45;2.83;;;32.30;58.00;;;;;;5033811;28;20052;-61
2023/09/05 12:28:56;;;;;;;12.48;2.50;;;32.70;58.20;;;;;;5033143;28;20040;-59
2023/09/05 12:32:00;;;;;;;5.72;2.30;;;31.40;58.70;;;;;;5033421;28;20049;-60
2023/09/05 12:35:04;;;;;;;5.32;2.10;;;31.50;59.00;;;;;;5033943;28;20048;-61
2023/09/05 12:38:10;;;;;;;7.18;2.03;;;31.70;58.60;;;;;;5033699;28;20041;-60
2023/09/05 12:41:16;;;;;;;6.90;2.80;;;31.80;59.00;;;;;;5033408;28;20048;-61
2023/09/05 12:44:20;;;;;;;10.57;2.60;;;32.20;59.10;;;;;;5033675;28;20049;-60
2023/09/05 12:47:24;;;;;;;8.40;2.40;;;32.30;58.50;;;;;;5031823;28;20040;-61
2023/09/05 12:50:36;;;;;;;11.38;2.53;;;31.90;58.90;;;;;;5031355;28;20044;-61
2023/09/05 12:53:40;;;;;;;6.95;2.15;;;31.60;58.90;;;;;;5032739;28;20881;-60
2023/09/05 12:56:44;;;;;;;10.57;2.40;;;32.10;58.40;;;;;;5032681;28;20052;-62
2023/09/05 12:59:48;;;;;;;5.47;2.20;;;32.00;58.30;;;;;;5032830;28;20048;-61
2023/09/05 13:02:52;;;;;;;29.20;3.70;;;31.70;58.40;;;;;;5033327;28;20044;-61
2023/09/05 13:05:56;;;;;;;9.73;2.60;;;30.80;59.30;;;;;;5032912;28;20084;-61
2023/09/05 13:09:00;;;;;;;9.85;2.55;;;30.20;60.40;;;;;;5033015;28;20049;-61
2023/09/05 13:12:04;;;;;;;16.20;2.67;;;29.80;59.90;;;;;;5032108;28;20060;-60
2023/09/05 13:15:08;;;;;;;15.48;2.42;;;29.50;60.70;;;;;;5032612;28;20500;-60
2023/09/05 13:18:15;;;;;;;9.60;2.55;;;29.30;60.80;;;;;;5032773;28;20052;-60
2023/09/05 13:21:19;;;;;;;13.45;3.33;;;29.20;61.60;;;;;;5032776;28;20040;-59
2023/09/05 13:24:23;;;;;;;7.28;2.20;;;29.10;61.70;;;;;;5032606;28;20053;-61
2023/09/05 13:27:27;;;;;;;8.65;2.60;;;29.00;61.60;;;;;;5032517;28;20465;-60
2023/09/05 13:30:31;;;;;;;10.63;2.78;;;29.00;62.20;;;;;;5032596;28;20052;-60
2023/09/05 13:33:38;;;;;;;14.05;2.60;;;28.90;62.20;;;;;;5032354;28;20056;-59
2023/09/05 13:36:43;;;;;;;9.65;2.75;;;28.90;62.40;;;;;;5032579;28;20711;-60
2023/09/05 13:39:47;;;;;;;8.10;2.83;;;28.90;62.60;;;;;;5031769;28;20053;-61
2023/09/05 13:42:50;;;;;;;7.78;2.80;;;29.00;61.60;;;;;;5032326;28;20414;-60
2023/09/05 13:45:54;;;;;;;22.60;3.03;;;28.90;61.10;;;;;;5031990;28;20048;-60
2023/09/05 13:48:58;;;;;;;20.20;2.83;;;28.80;61.20;;;;;;5032066;28;20040;-62
2023/09/05 13:52:03;;;;;;;17.67;2.80;;;28.70;61.00;;;;;;5031941;28;20504;-60
2023/09/05 13:55:07;;;;;;;15.23;2.97;;;28.70;61.70;;;;;;5031919;28;20052;-60
2023/09/05 13:58:11;;;;;;;15.18;2.60;;;28.60;61.90;;;;;;5032125;28;20386;-60
2023/09/05 14:01:15;;;;;;;18.63;3.90;;;28.50;61.80;;;;;;5032108;28;20044;-61
2023/09/05 14:04:19;;;;;;;15.27;3.30;;;28.30;62.50;;;;;;5031954;28;20040;-60
2023/09/05 14:07:25;;;;;;;6.53;3.00;;;28.30;62.70;;;;;;5031883;28;20044;-61
2023/09/05 14:10:29;;;;;;;12.23;3.15;;;28.30;63.00;;;;;;5031807;28;20036;-60
2023/09/05 14:13:33;;;;;;;12.85;3.53;;;28.30;63.10;;;;;;5031506;28;20061;-59
2023/09/05 14:16:38;;;;;;;42.42;4.22;;;28.40;62.80;;;;;;5031181;28;20056;-61
2023/09/05 14:19:43;;;;;;;20.80;3.85;;;28.30;63.10;;;;;;5031460;28;20048;-61
2023/09/05 14:22:47;;;;;;;26.48;3.35;;;28.30;62.50;;;;;;5031343;28;20056;-62
2023/09/05 14:25:51;;;;;;;10.90;2.95;;;28.20;62.80;;;;;;5031315;28;20044;-63
2023/09/05 14:28:55;;;;;;;25.33;4.00;;;28.20;62.40;;;;;;5031383;28;20049;-62
2023/09/05 14:31:59;;;;;;;14.80;3.50;;;28.30;61.70;;;;;;5030127;28;20056;-61
2023/09/05 14:35:04;;;;;;;14.27;3.38;;;28.20;62.30;;;;;;5031074;28;20048;-61
2023/09/05 14:38:08;;;;;;;7.60;3.00;;;28.30;62.40;;;;;;5031022;28;20084;-60
2023/09/05 14:41:12;;;;;;;26.63;3.65;;;28.30;62.10;;;;;;5030914;28;20504;-60
2023/09/05 14:44:17;;;;;;;11.85;3.30;;;28.30;61.50;;;;;;5030990;28;20060;-61
2023/09/05 14:47:20;;;;;;;21.50;3.33;;;28.20;61.40;;;;;;5031012;28;20048;-60
2023/09/05 14:50:25;;;;;;;19.40;3.92;;;28.20;61.60;;;;;;5031022;28;20053;-61
2023/09/05 14:53:28;;;;;;;11.68;3.25;;;28.20;61.50;;;;;;5030899;28;20421;-61
2023/09/05 14:56:32;;;;;;;16.20;2.90;;;28.20;61.60;;;;;;5030778;28;20536;-61
2023/09/05 14:59:36;;;;;;;6.75;3.03;;;28.20;61.60;;;;;;5031236;28;20508;-60
2023/09/05 15:02:40;;;;;;;15.95;4.40;;;28.20;61.60;;;;;;5030645;28;20041;-59
2023/09/05 15:05:44;;;;;;;7.50;3.05;;;28.20;61.40;;;;;;5031052;28;20208;-61
2023/09/05 15:08:48;;;;;;;11.40;3.63;;;28.20;61.30;;;;;;5030937;28;20401;-59
2023/09/05 15:11:52;;;;;;;21.88;3.15;;;28.20;61.50;;;;;;5030555;28;20048;-63
2023/09/05 15:14:56;;;;;;;14.82;3.60;;;28.20;61.50;;;;;;5030193;28;20512;-59
2023/09/05 15:18:00;;;;;;;10.45;3.60;;;28.20;61.60;;;;;;5030915;28;20036;-61
2023/09/05 15:21:04;;;;;;;26.15;3.60;;;28.10;61.90;;;;;;5029436;28;20045;-61
2023/09/05 15:24:10;;;;;;;7.90;3.00;;;28.10;61.80;;;;;;5029837;28;20040;-61
2023/09/05 15:27:15;;;;;;;9.77;3.22;;;28.10;62.00;;;;;;5030767;28;20049;-60
2023/09/05 15:30:18;;;;;;;16.85;3.50;;;28.10;62.10;;;;;;5035000;28;20120;-60
2023/09/05 15:33:23;;;;;;;13.68;3.58;;;28.00;62.10;;;;;;5034675;28;20057;-59
2023/09/05 15:36:27;;;;;;;7.43;3.10;;;27.90;62.50;;;;;;5034525;28;20041;-60
2023/09/05 15:39:30;;;;;;;5.97;3.38;;;27.80;62.60;;;;;;5034780;28;20074;-61
2023/09/05 15:42:35;;;;;;;16.42;4.15;;;27.90;63.00;;;;;;5034651;28;20500;-60
2023/09/05 15:45:48;;;;;;;9.35;3.03;;;27.80;62.70;;;;;;5034528;28;20041;-60
2023/09/05 15:48:51;;;;;;;13.23;3.78;;;27.80;62.60;;;;;;5034758;28;20048;-61
2023/09/05 15:51:55;;;;;;;12.75;3.50;;;27.80;62.90;;;;;;5034320;28;20049;-59
2023/09/05 15:54:59;;;;;;;17.42;4.03;;;27.90;62.70;;;;;;5033801;28;20072;-61
2023/09/05 15:58:03;;;;;;;14.07;3.65;;;27.80;62.50;;;;;;5032807;28;20060;-60